Terminal Aerodrome Forecast
Issued by NWS Tuscon, AZ

Home | Current Version | Previous Version | Text Only | Print | Product List | Glossary On
Versions: 1 2 3 4 5 6 7 8 9 10 11 12 13
817
FTUS45 KTWC 192330
TAFDUG
TAF
KDUG 192330Z 2000/2024 27015G25KT P6SM SCT080
     FM200200 24011KT P6SM FEW080
     FM200700 16006KT P6SM SKC
     FM201800 24014G22KT P6SM SCT080=

USA.gov is the U.S. government's official web portal to all federal, state and local government web resources and services.